Time;durP1;ratioP1;P1;durP2;ratioP2;P2;SDS_P1;SDS_P2;PMS_P1;PMS_P2;Temp;Humidity;BMP_temperature;BMP_pressure;BME280_temperature;BME280_humidity;BME280_pressure;Samples;Min_cycle;Max_cycle;Signal;HPM_P1;HPM_P2
2023/11/04 00:01:14;;;;;;;9.20;0.77;;;6.40;1.00;;;;;;5010660;28;20396;-71
2023/11/04 00:03:41;;;;;;;4.60;1.10;;;6.40;1.00;;;;;;5010575;28;20408;-71
2023/11/04 00:06:07;;;;;;;5.40;0.70;;;6.30;1.00;;;;;;5010330;28;20396;-71
2023/11/04 00:08:33;;;;;;;4.40;0.90;;;6.30;1.00;;;;;;5009151;28;20510;-71
2023/11/04 00:10:58;;;;;;;4.50;0.70;;;6.20;1.00;;;;;;5009090;28;20848;-72
2023/11/04 00:13:24;;;;;;;8.07;1.13;;;6.20;1.00;;;;;;5010061;28;20804;-72
2023/11/04 00:15:49;;;;;;;5.20;0.70;;;6.30;1.00;;;;;;5010139;28;20579;-72
2023/11/04 00:18:15;;;;;;;6.20;1.10;;;6.30;1.00;;;;;;5008940;28;20393;-71
2023/11/04 00:20:40;;;;;;;5.53;0.80;;;6.20;1.00;;;;;;5010107;28;20404;-71
2023/11/04 00:23:05;;;;;;;5.10;0.67;;;6.30;1.00;;;;;;5008837;28;20467;-72
2023/11/04 00:25:32;;;;;;;5.15;1.10;;;6.30;1.00;;;;;;5010779;28;20692;-71
2023/11/04 00:27:57;;;;;;;5.22;0.77;;;6.30;1.00;;;;;;5010257;28;20401;-71
2023/11/04 00:30:23;;;;;;;4.27;1.03;;;6.20;1.00;;;;;;5008404;28;20485;-72
2023/11/04 00:32:48;;;;;;;4.80;0.90;;;6.20;1.00;;;;;;5009954;28;20400;-72
2023/11/04 00:35:14;;;;;;;4.50;0.60;;;6.20;1.00;;;;;;5010171;28;20413;-72
2023/11/04 00:37:40;;;;;;;4.15;0.60;;;6.30;1.00;;;;;;5010207;28;20440;-72
2023/11/04 00:40:06;;;;;;;4.43;1.00;;;6.30;1.00;;;;;;5009791;28;20404;-72
2023/11/04 00:42:32;;;;;;;4.50;0.80;;;6.30;1.00;;;;;;5009605;28;20488;-72
2023/11/04 00:44:58;;;;;;;4.73;0.70;;;6.30;1.00;;;;;;5009711;28;20409;-72
2023/11/04 00:47:23;;;;;;;4.57;1.23;;;6.30;1.00;;;;;;5009278;28;20412;-72
2023/11/04 00:49:49;;;;;;;5.00;0.87;;;6.30;1.00;;;;;;5008541;28;20396;-71
2023/11/04 00:52:14;;;;;;;3.70;0.50;;;6.30;1.00;;;;;;5006663;28;20396;-72
2023/11/04 00:54:40;;;;;;;4.90;1.00;;;6.20;1.00;;;;;;5009703;28;20455;-72
2023/11/04 00:57:05;;;;;;;4.10;0.80;;;6.10;1.00;;;;;;5009605;28;20400;-72
2023/11/04 00:59:31;;;;;;;4.70;1.00;;;6.20;1.00;;;;;;5008834;28;20602;-72
2023/11/04 01:01:57;;;;;;;5.75;0.85;;;6.30;1.00;;;;;;5009388;28;20472;-72
2023/11/04 01:04:22;;;;;;;7.27;0.60;;;6.20;1.00;;;;;;5008458;28;20403;-72
2023/11/04 01:06:48;;;;;;;4.93;0.90;;;6.10;1.00;;;;;;5009449;28;20404;-72
2023/11/04 01:09:13;;;;;;;4.03;0.55;;;6.20;1.00;;;;;;5009998;28;20404;-72
2023/11/04 01:11:39;;;;;;;4.70;0.90;;;6.30;1.00;;;;;;5008816;28;20474;-72
2023/11/04 01:14:05;;;;;;;4.20;0.60;;;6.40;1.00;;;;;;5008541;28;20436;-72
2023/11/04 01:16:30;;;;;;;5.10;1.00;;;6.50;1.00;;;;;;5009024;28;20421;-72
2023/11/04 01:18:56;;;;;;;3.83;0.50;;;6.50;1.00;;;;;;5009252;28;20407;-72
2023/11/04 01:21:21;;;;;;;4.40;0.80;;;6.60;1.00;;;;;;5000220;28;20418;-72
2023/11/04 01:23:48;;;;;;;6.13;0.80;;;6.80;1.00;;;;;;5001920;28;20401;-72
2023/11/04 01:26:13;;;;;;;4.67;0.77;;;6.80;1.00;;;;;;5009548;28;20400;-72
2023/11/04 01:28:39;;;;;;;4.10;0.70;;;6.90;1.00;;;;;;5009237;28;20396;-72
2023/11/04 01:31:05;;;;;;;4.70;1.00;;;6.90;1.00;;;;;;5008128;28;20408;-72
2023/11/04 01:33:30;;;;;;;4.50;0.90;;;6.90;1.00;;;;;;5008757;28;20400;-72
2023/11/04 01:35:56;;;;;;;3.90;0.53;;;7.00;1.00;;;;;;5007446;28;20433;-72
2023/11/04 01:38:21;;;;;;;5.50;0.80;;;6.90;1.00;;;;;;5009372;28;20761;-72
2023/11/04 01:40:54;;;;;;;4.70;1.00;;;7.00;1.00;;;;;;5009445;28;20413;-72
2023/11/04 01:43:29;;;;;;;4.20;0.50;;;6.90;1.00;;;;;;5009141;28;20916;-72
2023/11/04 01:46:17;;;;;;;3.90;0.60;;;6.90;1.00;;;;;;5009474;28;20483;-72
2023/11/04 01:48:43;;;;;;;4.22;0.70;;;6.90;1.00;;;;;;5009159;28;20425;-72
2023/11/04 01:51:10;;;;;;;4.68;0.63;;;6.90;1.00;;;;;;5009527;28;20475;-72
2023/11/04 01:53:38;;;;;;;4.40;0.70;;;7.00;1.00;;;;;;5007885;28;20484;-72
2023/11/04 01:56:06;;;;;;;5.50;0.82;;;7.00;1.00;;;;;;5007182;28;20772;-72
2023/11/04 01:58:33;;;;;;;4.70;1.40;;;7.00;1.00;;;;;;5007261;28;20506;-72
2023/11/04 02:01:00;;;;;;;5.20;1.00;;;7.10;1.00;;;;;;5008031;28;20945;-72
2023/11/04 02:03:27;;;;;;;4.70;0.90;;;7.00;1.00;;;;;;5007065;28;20393;-72
2023/11/04 02:05:52;;;;;;;4.18;0.60;;;7.00;1.00;;;;;;4994835;28;20851;-72
2023/11/04 02:08:21;;;;;;;4.10;0.60;;;6.90;1.00;;;;;;5008631;28;20409;-72
2023/11/04 02:10:47;;;;;;;5.40;1.00;;;6.80;1.00;;;;;;5008025;28;20389;-72
2023/11/04 02:13:13;;;;;;;4.30;0.50;;;6.80;1.00;;;;;;4994656;28;20511;-72
2023/11/04 02:15:38;;;;;;;5.28;0.70;;;6.70;1.00;;;;;;5008466;28;20423;-72
2023/11/04 02:18:04;;;;;;;5.17;0.80;;;6.60;1.00;;;;;;5008363;28;20397;-72
2023/11/04 02:20:34;;;;;;;4.10;0.60;;;6.50;1.00;;;;;;5008546;28;20408;-72
2023/11/04 02:22:59;;;;;;;4.75;1.10;;;6.60;1.00;;;;;;5007027;28;20413;-72
2023/11/04 02:25:34;;;;;;;5.20;0.88;;;6.50;1.00;;;;;;5008439;28;20760;-72
2023/11/04 02:28:00;;;;;;;3.80;0.50;;;6.60;1.00;;;;;;5008180;28;20399;-72
2023/11/04 02:30:26;;;;;;;3.88;0.55;;;6.50;1.00;;;;;;5003981;28;20506;-72
2023/11/04 02:32:52;;;;;;;4.60;0.50;;;6.50;1.00;;;;;;5011400;28;20454;-72
2023/11/04 02:35:19;;;;;;;4.22;0.70;;;6.40;1.00;;;;;;5007403;28;20424;-72
2023/11/04 02:37:45;;;;;;;4.30;0.70;;;6.30;1.00;;;;;;5010840;28;20409;-72
2023/11/04 02:40:11;;;;;;;6.35;0.80;;;6.30;1.00;;;;;;5012300;28;20405;-72
2023/11/04 02:42:39;;;;;;;5.25;0.88;;;6.20;1.00;;;;;;5011724;28;20752;-72
2023/11/04 02:45:05;;;;;;;4.60;0.88;;;6.20;1.00;;;;;;5011964;28;20404;-72
2023/11/04 02:47:31;;;;;;;4.70;0.90;;;6.10;1.00;;;;;;5011535;28;20427;-72
2023/11/04 02:49:57;;;;;;;5.23;0.70;;;6.10;1.00;;;;;;5010779;28;20925;-72
2023/11/04 02:52:22;;;;;;;4.32;0.70;;;6.00;1.00;;;;;;5012141;28;20447;-72
2023/11/04 02:54:48;;;;;;;4.20;0.80;;;5.90;1.00;;;;;;5011936;28;20917;-72
2023/11/04 02:57:13;;;;;;;4.82;0.80;;;5.80;1.00;;;;;;5011737;28;20804;-72
2023/11/04 02:59:39;;;;;;;4.90;0.87;;;5.70;1.00;;;;;;5010039;28;20423;-73
2023/11/04 03:02:05;;;;;;;4.40;1.00;;;5.70;1.00;;;;;;5007183;28;20931;-72
2023/11/04 03:04:31;;;;;;;5.13;1.20;;;5.60;1.00;;;;;;5011311;28;20401;-72
2023/11/04 03:06:56;;;;;;;5.80;1.23;;;5.50;1.00;;;;;;5011446;28;20843;-72
2023/11/04 03:09:22;;;;;;;5.18;1.27;;;5.60;1.00;;;;;;5010782;28;20496;-72
2023/11/04 03:11:48;;;;;;;5.60;1.30;;;5.60;1.00;;;;;;5011250;28;20401;-72
2023/11/04 03:14:14;;;;;;;4.45;0.90;;;5.60;1.00;;;;;;5010099;28;20531;-72
2023/11/04 03:16:39;;;;;;;4.55;0.65;;;5.40;1.00;;;;;;5011662;28;20419;-72
2023/11/04 03:19:05;;;;;;;4.97;1.27;;;5.40;1.00;;;;;;5011371;28;20404;-72
2023/11/04 03:21:31;;;;;;;5.80;1.30;;;5.40;1.00;;;;;;5010889;28;20955;-72
2023/11/04 03:23:56;;;;;;;4.30;0.90;;;5.30;1.00;;;;;;5010923;28;20403;-72
2023/11/04 03:26:22;;;;;;;5.40;1.20;;;5.30;1.00;;;;;;5011046;28;20496;-72
2023/11/04 03:28:47;;;;;;;4.73;0.90;;;5.30;1.00;;;;;;5010894;28;20454;-72
2023/11/04 03:31:13;;;;;;;4.40;0.80;;;5.30;1.00;;;;;;5010458;28;20919;-73
2023/11/04 03:33:38;;;;;;;4.27;1.00;;;5.20;1.00;;;;;;5010832;28;20409;-72
2023/11/04 03:36:04;;;;;;;4.90;0.90;;;5.20;1.00;;;;;;5010654;28;20452;-73
2023/11/04 03:38:30;;;;;;;4.50;0.98;;;5.20;1.00;;;;;;5010437;28;20404;-72
2023/11/04 03:40:55;;;;;;;4.40;0.87;;;5.20;1.00;;;;;;5010945;28;20765;-72
2023/11/04 03:43:21;;;;;;;4.18;0.60;;;5.10;1.00;;;;;;5009720;28;20399;-72
2023/11/04 03:45:47;;;;;;;5.10;1.13;;;5.20;1.00;;;;;;5010370;28;20400;-72
2023/11/04 03:48:13;;;;;;;4.60;0.70;;;5.20;1.00;;;;;;5011304;28;20459;-72
2023/11/04 03:50:38;;;;;;;3.90;0.70;;;5.20;1.00;;;;;;5010565;28;20840;-72
2023/11/04 03:53:04;;;;;;;5.00;0.57;;;5.20;1.00;;;;;;5010840;28;20451;-72
2023/11/04 03:55:29;;;;;;;3.83;0.50;;;5.30;1.00;;;;;;4993772;28;20438;-72
2023/11/04 03:57:55;;;;;;;4.20;0.70;;;5.40;1.00;;;;;;5009825;28;20408;-72
2023/11/04 04:00:20;;;;;;;5.10;0.60;;;5.50;1.00;;;;;;5010000;28;20413;-72
2023/11/04 04:02:46;;;;;;;3.67;0.50;;;5.60;1.00;;;;;;5010172;28;20393;-72
2023/11/04 04:05:11;;;;;;;3.80;0.50;;;5.70;1.00;;;;;;5010457;28;20401;-72
2023/11/04 04:07:37;;;;;;;3.90;0.50;;;5.80;1.00;;;;;;5009586;28;20397;-72
2023/11/04 04:10:02;;;;;;;7.40;1.00;;;5.80;1.00;;;;;;5009616;28;20768;-72
2023/11/04 04:12:28;;;;;;;4.40;0.50;;;5.80;1.00;;;;;;5009887;28;20400;-72
2023/11/04 04:14:53;;;;;;;3.77;0.47;;;5.90;1.00;;;;;;5009748;28;20966;-72
2023/11/04 04:17:19;;;;;;;4.10;0.67;;;6.00;1.00;;;;;;5006423;28;20418;-72
2023/11/04 04:19:47;;;;;;;4.30;0.60;;;6.00;1.00;;;;;;5010495;28;20824;-72
2023/11/04 04:22:12;;;;;;;4.10;0.70;;;6.00;1.00;;;;;;5010460;28;20824;-72
2023/11/04 04:24:39;;;;;;;3.80;0.45;;;5.90;1.00;;;;;;5010222;28;20405;-72
2023/11/04 04:27:04;;;;;;;3.60;0.50;;;5.90;1.00;;;;;;5010027;28;20471;-72
2023/11/04 04:29:30;;;;;;;3.90;0.47;;;6.00;1.00;;;;;;5010025;28;20932;-72
2023/11/04 04:31:56;;;;;;;3.60;0.35;;;6.00;1.00;;;;;;5009820;28;20746;-72
2023/11/04 04:34:22;;;;;;;5.20;1.17;;;6.00;1.00;;;;;;5009747;28;20408;-72
2023/11/04 04:36:47;;;;;;;3.70;0.50;;;6.00;1.00;;;;;;5009572;28;20437;-72
2023/11/04 04:39:13;;;;;;;4.40;1.00;;;5.90;1.00;;;;;;5010198;28;20407;-72
2023/11/04 04:41:38;;;;;;;4.30;0.70;;;5.80;1.00;;;;;;5009489;28;20401;-72
2023/11/04 04:44:04;;;;;;;4.13;1.00;;;5.70;1.00;;;;;;4992622;28;20787;-72
2023/11/04 04:46:30;;;;;;;4.20;0.80;;;5.60;1.00;;;;;;4995344;28;20401;-72
2023/11/04 04:48:55;;;;;;;4.20;0.90;;;5.60;1.00;;;;;;5009592;28;20405;-71
2023/11/04 04:51:23;;;;;;;4.55;0.55;;;5.50;1.00;;;;;;5009707;28;20400;-72
2023/11/04 04:53:48;;;;;;;4.03;0.63;;;5.40;1.00;;;;;;5009138;28;20738;-72
2023/11/04 04:56:15;;;;;;;3.80;0.60;;;5.30;1.00;;;;;;5009782;28;20424;-72
2023/11/04 04:58:41;;;;;;;4.40;0.50;;;5.30;1.00;;;;;;5008450;28;20506;-72
2023/11/04 05:01:17;;;;;;;4.20;0.70;;;5.40;1.00;;;;;;5009285;28;20419;-72
2023/11/04 05:03:43;;;;;;;3.90;0.40;;;5.30;1.00;;;;;;5010106;28;20569;-72
2023/11/04 05:06:08;;;;;;;3.90;0.52;;;5.30;1.00;;;;;;5009338;28;20550;-72
2023/11/04 05:08:34;;;;;;;5.00;0.80;;;5.30;1.00;;;;;;5009539;28;20389;-72
2023/11/04 05:10:59;;;;;;;3.90;0.52;;;5.30;1.00;;;;;;5009168;28;20962;-72
2023/11/04 05:13:25;;;;;;;3.60;0.43;;;5.40;1.00;;;;;;5009373;28;20397;-73
2023/11/04 05:15:51;;;;;;;3.83;0.45;;;5.40;1.00;;;;;;5009408;28;20516;-72
2023/11/04 05:18:17;;;;;;;4.03;0.67;;;5.40;1.00;;;;;;4995871;28;20438;-72
2023/11/04 05:20:42;;;;;;;3.70;0.57;;;5.50;1.00;;;;;;4990373;28;20879;-72
2023/11/04 05:23:08;;;;;;;3.70;0.40;;;5.50;1.00;;;;;;4990396;28;20401;-72
2023/11/04 05:25:34;;;;;;;3.90;0.50;;;5.50;1.00;;;;;;4989363;28;20441;-72
2023/11/04 05:27:59;;;;;;;3.90;0.40;;;5.50;1.00;;;;;;5004659;28;20404;-72
2023/11/04 05:30:25;;;;;;;4.47;0.53;;;5.40;1.00;;;;;;5009293;28;20393;-72
2023/11/04 05:32:51;;;;;;;3.90;0.40;;;5.30;1.00;;;;;;5009122;28;20904;-72
2023/11/04 05:35:20;;;;;;;5.10;0.70;;;5.40;1.00;;;;;;5009159;28;20416;-72
2023/11/04 05:37:45;;;;;;;3.80;0.50;;;5.50;1.00;;;;;;5009071;28;20906;-72
2023/11/04 05:40:11;;;;;;;3.70;0.40;;;5.30;1.00;;;;;;5009633;28;20401;-72
2023/11/04 05:42:36;;;;;;;4.20;0.40;;;5.40;1.00;;;;;;5009334;28;20458;-72
2023/11/04 05:45:02;;;;;;;5.00;0.60;;;5.40;1.00;;;;;;5009190;28;20740;-72
2023/11/04 05:47:28;;;;;;;3.70;0.40;;;5.40;1.00;;;;;;5009457;28;20380;-73
2023/11/04 05:49:53;;;;;;;3.70;0.30;;;5.50;1.00;;;;;;5009457;28;20892;-73
2023/11/04 05:52:19;;;;;;;3.90;0.30;;;5.50;1.00;;;;;;5008657;28;20399;-73
2023/11/04 05:54:45;;;;;;;4.23;0.73;;;5.50;1.00;;;;;;5008823;28;20769;-72
2023/11/04 05:57:10;;;;;;;3.50;0.20;;;5.60;1.00;;;;;;5009853;28;20514;-72
2023/11/04 05:59:37;;;;;;;3.60;0.50;;;5.70;1.00;;;;;;5008838;28;20431;-72
2023/11/04 06:02:03;;;;;;;3.70;0.55;;;5.70;1.00;;;;;;5008592;28;20408;-72
2023/11/04 06:04:29;;;;;;;3.80;0.25;;;5.80;1.00;;;;;;5008505;28;20772;-72
2023/11/04 06:06:55;;;;;;;3.70;0.40;;;5.80;1.00;;;;;;5010540;28;20439;-72
2023/11/04 06:09:20;;;;;;;4.80;0.77;;;5.90;1.00;;;;;;5012783;28;20429;-72
2023/11/04 06:11:46;;;;;;;4.30;0.60;;;5.90;1.00;;;;;;5012956;28;20856;-72
2023/11/04 06:14:13;;;;;;;3.50;0.30;;;6.00;1.00;;;;;;5012405;28;20824;-72
2023/11/04 06:16:38;;;;;;;4.00;0.70;;;6.10;1.00;;;;;;5012896;28;20500;-72
2023/11/04 06:19:05;;;;;;;3.90;0.50;;;6.10;1.00;;;;;;5010927;28;20508;-72
2023/11/04 06:21:30;;;;;;;3.50;0.30;;;6.20;1.00;;;;;;5012966;28;20443;-71
2023/11/04 06:23:57;;;;;;;4.00;0.60;;;6.30;1.00;;;;;;5012584;28;20408;-72
2023/11/04 06:26:23;;;;;;;3.70;0.47;;;6.30;1.00;;;;;;5012736;28;20884;-72
2023/11/04 06:28:49;;;;;;;3.70;0.40;;;6.40;1.00;;;;;;5012762;28;20399;-71
2023/11/04 06:31:16;;;;;;;3.78;0.38;;;6.40;1.00;;;;;;5012050;28;20801;-71
2023/11/04 06:33:42;;;;;;;3.80;0.30;;;6.40;1.00;;;;;;5002813;28;20417;-71
2023/11/04 06:36:08;;;;;;;3.90;0.60;;;6.40;1.00;;;;;;5007297;28;20781;-71
2023/11/04 06:38:34;;;;;;;5.20;0.40;;;6.50;1.00;;;;;;4996299;28;20406;-71
2023/11/04 06:40:59;;;;;;;3.80;0.40;;;6.60;1.00;;;;;;4993455;28;20406;-71
2023/11/04 06:43:28;;;;;;;3.80;0.50;;;6.60;1.00;;;;;;4993832;28;20441;-71
2023/11/04 06:45:53;;;;;;;3.90;0.50;;;6.70;1.00;;;;;;4994241;28;20994;-72
2023/11/04 06:48:19;;;;;;;3.70;0.30;;;6.80;1.00;;;;;;4994679;28;20500;-72
2023/11/04 06:50:45;;;;;;;3.90;0.50;;;6.80;1.00;;;;;;5001407;28;20410;-71
2023/11/04 06:53:10;;;;;;;3.70;0.40;;;6.80;1.00;;;;;;4992933;28;20501;-72
2023/11/04 06:55:36;;;;;;;4.00;0.57;;;6.80;1.00;;;;;;4992359;28;20759;-72
2023/11/04 06:58:02;;;;;;;5.40;0.80;;;6.90;1.00;;;;;;5001258;28;20459;-73
2023/11/04 07:00:27;;;;;;;3.80;0.40;;;7.00;1.00;;;;;;5000083;28;20437;-72
2023/11/04 07:02:53;;;;;;;3.80;0.35;;;7.00;1.00;;;;;;5000649;28;20886;-72
2023/11/04 07:05:19;;;;;;;3.70;0.40;;;7.10;1.00;;;;;;5000987;28;20409;-72
2023/11/04 07:07:47;;;;;;;4.57;0.63;;;7.00;1.00;;;;;;5006809;28;20396;-72
2023/11/04 07:10:12;;;;;;;4.78;0.70;;;6.90;1.00;;;;;;5009582;28;20406;-72
2023/11/04 07:12:38;;;;;;;6.50;0.90;;;6.90;1.00;;;;;;4999353;28;20419;-72
2023/11/04 07:15:04;;;;;;;4.00;0.87;;;6.80;1.00;;;;;;5003808;28;20429;-72
2023/11/04 07:17:30;;;;;;;6.28;1.10;;;6.90;1.00;;;;;;5000623;28;20768;-72
2023/11/04 07:19:57;;;;;;;4.35;0.75;;;7.20;1.00;;;;;;4999625;28;20409;-70
2023/11/04 07:22:23;;;;;;;4.07;0.60;;;7.80;1.00;;;;;;5004842;28;20420;-70
2023/11/04 07:24:49;;;;;;;4.60;0.80;;;8.90;1.00;;;;;;5004230;28;20417;-73
2023/11/04 07:27:15;;;;;;;4.80;0.70;;;10.30;1.00;;;;;;5006391;28;20417;-71
2023/11/04 07:29:41;;;;;;;5.00;0.80;;;11.80;99.90;;;;;;4992473;28;20846;-71
2023/11/04 07:32:07;;;;;;;4.70;0.70;;;13.10;99.90;;;;;;4994451;28;20458;-70
2023/11/04 07:34:33;;;;;;;4.60;0.50;;;13.90;99.90;;;;;;4995469;28;20418;-70
2023/11/04 07:37:00;;;;;;;5.55;1.30;;;14.60;99.90;;;;;;5008865;28;20420;-70
2023/11/04 07:39:28;;;;;;;4.55;0.80;;;14.90;99.90;;;;;;5009405;28;20409;-71
2023/11/04 07:41:54;;;;;;;4.40;0.70;;;15.60;99.90;;;;;;5000218;28;20405;-71
2023/11/04 07:44:20;;;;;;;7.28;0.88;;;16.30;99.90;;;;;;5004139;28;20415;-70
2023/11/04 07:46:46;;;;;;;4.82;0.75;;;15.50;99.90;;;;;;4999494;28;20401;-70
2023/11/04 07:49:12;;;;;;;4.97;1.00;;;15.10;99.90;;;;;;5003751;28;20407;-75
2023/11/04 07:51:38;;;;;;;5.13;1.00;;;14.70;99.90;;;;;;5014734;28;20401;-75
2023/11/04 07:54:04;;;;;;;6.50;1.10;;;14.10;99.90;;;;;;5017498;28;20403;-73
2023/11/04 07:56:29;;;;;;;5.73;0.80;;;14.50;99.90;;;;;;5016889;28;20423;-75
2023/11/04 07:58:55;;;;;;;5.87;1.07;;;15.40;99.90;;;;;;5014960;28;20436;-75
2023/11/04 08:01:20;;;;;;;5.78;1.40;;;15.10;99.90;;;;;;5024687;28;20436;-74
2023/11/04 08:03:46;;;;;;;4.70;0.90;;;15.00;99.90;;;;;;5009623;28;20471;-74
2023/11/04 08:06:12;;;;;;;4.77;0.80;;;15.20;99.90;;;;;;5008032;28;20492;-74
2023/11/04 08:08:37;;;;;;;4.80;0.90;;;15.60;99.90;;;;;;5008039;28;20409;-74
2023/11/04 08:11:03;;;;;;;4.40;0.50;;;16.10;99.90;;;;;;5006380;28;20408;-76
2023/11/04 08:13:29;;;;;;;5.50;1.50;;;16.60;99.90;;;;;;5008309;28;20422;-77
2023/11/04 08:15:54;;;;;;;5.90;0.80;;;16.50;99.90;;;;;;5010871;28;20508;-76
2023/11/04 08:18:23;;;;;;;5.30;1.00;;;16.00;99.90;;;;;;5001353;28;20406;-71
2023/11/04 08:20:49;;;;;;;5.13;1.00;;;;;;;;;;5012456;28;20546;-72
2023/11/04 08:23:14;;;;;;;5.10;0.90;;;17.90;99.90;;;;;;5015391;28;20408;-72
2023/11/04 08:25:40;;;;;;;5.00;0.82;;;18.50;99.90;;;;;;5010363;28;20393;-71
2023/11/04 08:28:06;;;;;;;4.82;1.00;;;19.90;99.90;;;;;;5009938;28;20397;-71
2023/11/04 08:30:31;;;;;;;5.88;1.10;;;19.80;99.90;;;;;;5009630;28;20916;-72
2023/11/04 08:32:57;;;;;;;5.85;0.98;;;18.90;99.90;;;;;;5010350;28;20397;-72
2023/11/04 08:35:22;;;;;;;5.30;1.10;;;19.30;99.90;;;;;;5009973;28;20416;-71
2023/11/04 08:37:48;;;;;;;5.60;1.20;;;19.90;99.90;;;;;;5009618;28;20520;-71
2023/11/04 08:40:14;;;;;;;5.00;1.10;;;19.90;99.90;;;;;;5010691;28;20389;-72
2023/11/04 08:42:40;;;;;;;6.05;1.35;;;19.80;99.90;;;;;;5007521;28;20404;-71
2023/11/04 08:45:11;;;;;;;4.70;0.98;;;20.20;99.90;;;;;;4989609;28;20419;-71
2023/11/04 08:47:36;;;;;;;4.67;1.20;;;20.10;99.90;;;;;;4990774;28;20426;-73
2023/11/04 08:50:03;;;;;;;5.05;1.10;;;19.10;99.90;;;;;;4989893;28;20493;-71
2023/11/04 08:52:28;;;;;;;4.97;1.20;;;17.30;99.90;;;;;;4989064;28;20399;-70
2023/11/04 08:54:54;;;;;;;5.60;0.80;;;15.50;99.90;;;;;;4990588;28;20422;-71
2023/11/04 08:57:20;;;;;;;4.90;1.10;;;14.30;99.90;;;;;;4989617;28;20458;-72
2023/11/04 08:59:46;;;;;;;6.40;1.20;;;13.60;99.90;;;;;;4988810;28;20407;-72
2023/11/04 09:02:12;;;;;;;6.07;1.30;;;13.10;99.90;;;;;;4989973;28;20434;-72
2023/11/04 09:04:37;;;;;;;4.90;1.00;;;13.00;99.90;;;;;;4990026;28;20962;-72
2023/11/04 09:07:03;;;;;;;5.95;1.00;;;13.60;99.90;;;;;;4990581;28;20925;-72
2023/11/04 09:09:29;;;;;;;5.10;0.87;;;13.60;99.90;;;;;;4990536;28;20402;-72
2023/11/04 09:11:55;;;;;;;5.80;0.80;;;13.50;99.90;;;;;;4990527;28;20394;-72
2023/11/04 09:14:24;;;;;;;4.80;0.90;;;13.50;99.90;;;;;;4990144;28;20399;-72
2023/11/04 09:16:50;;;;;;;4.20;0.60;;;13.60;99.90;;;;;;4991017;28;20398;-70
2023/11/04 09:19:15;;;;;;;6.00;1.10;;;14.50;99.90;;;;;;4989622;28;20436;-70
2023/11/04 09:21:41;;;;;;;4.73;0.80;;;15.10;99.90;;;;;;5000084;28;20429;-71
2023/11/04 09:24:07;;;;;;;5.10;1.20;;;15.90;99.90;;;;;;4990124;28;20395;-71
2023/11/04 09:26:32;;;;;;;6.95;0.90;;;16.70;99.90;;;;;;4990293;28;20460;-71
2023/11/04 09:28:58;;;;;;;5.90;1.40;;;17.60;99.90;;;;;;4990456;28;20477;-71
2023/11/04 09:31:23;;;;;;;5.90;1.70;;;18.80;1.00;;;;;;4990126;28;20739;-72
2023/11/04 09:33:49;;;;;;;4.77;0.87;;;19.80;1.00;;;;;;4990076;28;20386;-70
2023/11/04 09:36:14;;;;;;;4.90;0.90;;;20.40;99.90;;;;;;4990051;28;20430;-71
2023/11/04 09:38:40;;;;;;;5.53;1.00;;;20.10;99.90;;;;;;4990389;28;20426;-72
2023/11/04 09:41:06;;;;;;;5.40;0.90;;;19.40;99.90;;;;;;4991016;28;20426;-72
2023/11/04 09:43:32;;;;;;;5.57;1.47;;;19.10;99.90;;;;;;4993836;28;20421;-73
2023/11/04 09:46:01;;;;;;;6.78;1.35;;;19.00;99.90;;;;;;4993858;28;20425;-73
2023/11/04 09:48:28;;;;;;;5.10;1.13;;;18.90;99.90;;;;;;4993702;28;20385;-72
2023/11/04 09:50:59;;;;;;;4.90;0.90;;;18.50;99.90;;;;;;4993779;28;20469;-72
2023/11/04 09:53:30;;;;;;;4.95;0.90;;;18.60;99.90;;;;;;4993866;28;20402;-72
2023/11/04 09:55:55;;;;;;;5.30;0.95;;;18.20;99.90;;;;;;4993793;28;20429;-70
2023/11/04 09:58:21;;;;;;;4.70;1.00;;;17.20;99.90;;;;;;4993772;28;20394;-70
2023/11/04 10:00:47;;;;;;;5.00;0.70;;;16.20;99.90;;;;;;4993211;28;20407;-70
2023/11/04 10:03:13;;;;;;;4.90;1.00;;;15.70;99.90;;;;;;4993118;28;20401;-71
2023/11/04 10:05:39;;;;;;;4.40;0.70;;;14.80;99.90;;;;;;4993428;28;20390;-72
2023/11/04 10:08:05;;;;;;;5.30;0.80;;;14.40;99.90;;;;;;4999716;28;20416;-71
2023/11/04 10:10:30;;;;;;;4.88;0.75;;;14.20;99.90;;;;;;5013493;28;20447;-72
2023/11/04 10:12:56;;;;;;;6.60;0.90;;;14.00;99.90;;;;;;5012922;28;20401;-72
2023/11/04 10:15:23;;;;;;;4.70;0.70;;;13.80;99.90;;;;;;4996441;28;20460;-72
2023/11/04 10:17:48;;;;;;;4.80;0.90;;;13.60;99.90;;;;;;5009890;28;20400;-71
2023/11/04 10:20:15;;;;;;;4.30;0.60;;;13.10;99.90;;;;;;5005777;28;20404;-71
2023/11/04 10:22:41;;;;;;;4.53;0.70;;;13.10;99.90;;;;;;5012628;28;20546;-71
2023/11/04 10:25:07;;;;;;;4.50;0.70;;;13.10;99.90;;;;;;5011847;28;20447;-71
2023/11/04 10:27:34;;;;;;;4.63;0.60;;;13.10;99.90;;;;;;5011749;28;20812;-72
2023/11/04 10:30:00;;;;;;;4.60;0.80;;;12.80;99.90;;;;;;5011549;28;20896;-71
2023/11/04 10:32:33;;;;;;;4.60;0.70;;;12.60;99.90;;;;;;5012734;28;20741;-72
2023/11/04 10:35:02;;;;;;;4.90;0.70;;;12.60;99.90;;;;;;5012687;28;20484;-72
2023/11/04 10:37:31;;;;;;;4.70;0.80;;;12.30;99.90;;;;;;5012381;28;20397;-72
2023/11/04 10:39:59;;;;;;;6.00;0.80;;;12.30;99.90;;;;;;5012399;28;20741;-72
2023/11/04 10:42:28;;;;;;;4.50;0.60;;;12.30;99.90;;;;;;5008756;28;20912;-72
2023/11/04 10:44:58;;;;;;;4.32;0.57;;;12.20;99.90;;;;;;5003297;28;20905;-72
2023/11/04 10:47:58;;;;;;;4.60;0.80;;;12.10;99.90;;;;;;4996655;28;20391;-72
2023/11/04 10:50:36;;;;;;;4.50;0.60;;;12.20;99.90;;;;;;4992726;28;20394;-71
2023/11/04 10:53:39;;;;;;;5.38;0.63;;;12.30;99.90;;;;;;4992256;28;20394;-72
2023/11/04 10:56:13;;;;;;;4.60;0.50;;;12.20;99.90;;;;;;4992552;28;20430;-72
2023/11/04 10:59:06;;;;;;;4.10;0.50;;;12.20;99.90;;;;;;4992018;28;20449;-72
2023/11/04 11:01:32;;;;;;;4.30;0.57;;;12.20;99.90;;;;;;4992605;28;20391;-72
2023/11/04 11:04:01;;;;;;;4.20;0.50;;;12.20;99.90;;;;;;5011328;28;20680;-72
2023/11/04 11:06:27;;;;;;;4.30;0.50;;;12.30;99.90;;;;;;5008557;28;20502;-72
2023/11/04 11:08:53;;;;;;;4.10;0.45;;;12.40;99.90;;;;;;5010215;28;20850;-71
2023/11/04 11:11:24;;;;;;;4.40;0.70;;;12.40;99.90;;;;;;5011135;28;20912;-72
2023/11/04 11:13:53;;;;;;;4.80;0.68;;;12.50;99.90;;;;;;5007982;28;20880;-72
2023/11/04 11:16:19;;;;;;;4.60;0.50;;;12.50;99.90;;;;;;5004861;28;20508;-72
2023/11/04 11:18:44;;;;;;;4.43;0.50;;;12.50;99.90;;;;;;5011210;28;20476;-72
2023/11/04 11:21:10;;;;;;;4.20;0.57;;;12.70;99.90;;;;;;5012239;28;20405;-72
2023/11/04 11:23:37;;;;;;;5.90;0.70;;;12.80;99.90;;;;;;5009702;28;20791;-72
2023/11/04 11:26:04;;;;;;;4.80;0.60;;;12.90;99.90;;;;;;5011369;28;20385;-71
2023/11/04 11:28:38;;;;;;;4.28;0.60;;;13.10;99.90;;;;;;5009741;28;20401;-72
2023/11/04 11:31:05;;;;;;;4.40;0.40;;;13.10;99.90;;;;;;5011281;28;20442;-72
2023/11/04 11:33:31;;;;;;;4.30;0.50;;;12.90;99.90;;;;;;5006210;28;20456;-72
2023/11/04 11:35:59;;;;;;;4.20;0.50;;;12.70;99.90;;;;;;5002819;28;20456;-72
2023/11/04 11:38:30;;;;;;;4.83;0.50;;;12.70;99.90;;;;;;5010630;28;20389;-72
2023/11/04 11:41:03;;;;;;;4.40;0.60;;;12.60;99.90;;;;;;5011594;28;20438;-72
2023/11/04 11:43:29;;;;;;;4.45;0.60;;;12.60;99.90;;;;;;5009322;28;20463;-72
2023/11/04 11:45:55;;;;;;;4.20;0.50;;;12.50;99.90;;;;;;5010405;28;20393;-71
2023/11/04 11:48:21;;;;;;;4.00;0.50;;;12.40;99.90;;;;;;5011220;28;20393;-72
2023/11/04 11:50:46;;;;;;;4.40;0.80;;;12.40;99.90;;;;;;5010291;28;20423;-72
2023/11/04 11:53:13;;;;;;;4.10;0.40;;;12.30;99.90;;;;;;5009575;28;20893;-72
2023/11/04 11:55:38;;;;;;;4.00;0.30;;;12.20;99.90;;;;;;5008044;28;20424;-72
2023/11/04 11:58:04;;;;;;;4.10;0.40;;;12.10;99.90;;;;;;5005414;28;20923;-72
2023/11/04 12:00:30;;;;;;;4.10;0.40;;;12.00;99.90;;;;;;4990959;28;20422;-70
2023/11/04 12:02:56;;;;;;;4.10;0.40;;;11.70;99.90;;;;;;4997314;28;20821;-70
2023/11/04 12:05:22;;;;;;;4.50;0.60;;;11.40;99.90;;;;;;5008016;28;20424;-71
2023/11/04 12:07:49;;;;;;;4.18;0.40;;;11.40;99.90;;;;;;5009465;28;20883;-70
2023/11/04 12:10:16;;;;;;;4.30;0.50;;;11.20;99.90;;;;;;5009159;28;20409;-70
2023/11/04 12:12:44;;;;;;;4.00;0.30;;;11.10;99.90;;;;;;5010456;28;20420;-70
2023/11/04 12:15:16;;;;;;;4.10;0.30;;;11.10;99.90;;;;;;5010964;28;20416;-69
2023/11/04 12:17:42;;;;;;;4.60;0.68;;;11.00;99.90;;;;;;5009798;28;20441;-70
2023/11/04 12:20:11;;;;;;;4.40;0.40;;;10.80;99.90;;;;;;5010868;28;20416;-70
2023/11/04 12:22:39;;;;;;;4.00;0.30;;;10.90;99.90;;;;;;5010653;28;20428;-69
2023/11/04 12:25:06;;;;;;;4.10;0.40;;;11.00;99.90;;;;;;5010769;28;20403;-70
2023/11/04 12:27:42;;;;;;;4.13;0.50;;;11.10;99.90;;;;;;5009643;28;20471;-70
2023/11/04 12:30:09;;;;;;;4.00;0.30;;;11.00;99.90;;;;;;5010896;28;20409;-70
2023/11/04 12:32:34;;;;;;;4.60;0.50;;;10.90;99.90;;;;;;5009702;28;20499;-70
2023/11/04 12:35:00;;;;;;;4.20;0.50;;;10.90;99.90;;;;;;5010901;28;20816;-71
2023/11/04 12:37:29;;;;;;;3.90;0.30;;;11.00;99.90;;;;;;5010314;28;20385;-71
2023/11/04 12:39:54;;;;;;;7.00;0.50;;;11.00;99.90;;;;;;5010077;28;20389;-71
2023/11/04 12:42:20;;;;;;;4.03;0.30;;;10.90;99.90;;;;;;5008215;28;20781;-71
2023/11/04 12:44:49;;;;;;;4.00;0.40;;;10.90;99.90;;;;;;5010013;28;20425;-70
2023/11/04 12:47:15;;;;;;;4.20;0.50;;;10.90;99.90;;;;;;5009911;28;20387;-70
2023/11/04 12:49:40;;;;;;;5.37;0.70;;;11.00;99.90;;;;;;4996139;28;20493;-71
2023/11/04 12:52:09;;;;;;;4.45;0.50;;;11.20;99.90;;;;;;5003364;28;20480;-71
2023/11/04 12:54:36;;;;;;;6.40;0.60;;;11.20;99.90;;;;;;4994385;28;20396;-71
2023/11/04 12:57:02;;;;;;;4.40;0.47;;;11.30;99.90;;;;;;5009515;28;20393;-71